Главная страница
METAR-TAF:

METAR-TAF

Аэропорты :

Чорлу, Турция

широта: 41-08N, долгота: 027-55E, высота над уровнем моря: 173 м

Текущие метеонаблюдения

Эта сводка был подготовлена 34 минут назад, в 06:50 UTC
Ветер 5 Узел от юго-юго-восточный, изменяющийся между восточно-юго-восточный и южный
Температура 20°C
Влажность 60%
Давление 1014 hPa
Видимость 10 км и более
Нет облачности ниже 1500 м, и нет кучево-дождевой облачности

METAR: LTBU 290650Z 15005KT 110V180 CAVOK 20/12 Q1014 RMK RWY23 16005KT 110V220

Время: 10:24 (07:24 UTC)

Прогноз

Эта сводка был подготовлена 2 часа и 44 минут назад, в 04:40 UTC
Прогноз действительный с 29-го 06 UTC до 30-го 06 UTC
Ветер 2 Узел переменных направлений
Видимость 10 км и более
Нет облачности ниже 1500 м, и нет кучево-дождевой облачности

TAF: LTBU 290440Z 2906/3006 VRB02KT CAVOK

Метеонаблюдения и прогнозы для более 4000 аэропортов (сводки METAR и TAF).

Имеющиеся станции представлены на карте желтыми и красными точками.

Чтобы увидеть название станции, наведите на нее мышь.

Затем щелкните, чтобы увидеть метеонаблюдения и метеопрогнозы.

Управление картой: чтобы увеличить масштаб, щелкните зеленые кнопки с черным крестиком; чтобы уменьшить масштаб, щелкните зеленую кнопку с тире; для просмотра соседних карт щелкайте зеленые стрелки.


METAR-TAF: